createdAt,value
2023-04-13T00:00:25.356Z,3
2023-04-13T00:01:26.724Z,2.900
2023-04-13T00:02:24.013Z,2.299
2023-04-13T00:03:23.630Z,3.200
2023-04-13T00:04:23.343Z,4.199
2023-04-13T00:05:24.310Z,3.099
2023-04-13T00:06:23.769Z,2.200
2023-04-13T00:07:23.205Z,2.5
2023-04-13T00:08:23.642Z,3.400
2023-04-13T00:09:23.411Z,2.599
2023-04-13T00:10:23.270Z,1.799
2023-04-13T00:11:23.381Z,2.400
2023-04-13T00:12:23.729Z,3.200
2023-04-13T00:13:23.526Z,3.700
2023-04-13T00:14:23.598Z,3.099
2023-04-13T00:15:23.509Z,2.799
2023-04-13T00:16:24.020Z,2.5
2023-04-13T00:18:23.577Z,4.099
2023-04-13T00:19:23.228Z,3
2023-04-13T00:20:23.709Z,3.400
2023-04-13T00:21:23.354Z,2.900
2023-04-13T00:22:23.938Z,2.799
2023-04-13T00:23:23.994Z,3.5
2023-04-13T00:24:23.813Z,4.5
2023-04-13T00:25:23.429Z,2.599
2023-04-13T00:26:23.795Z,4.199
2023-04-13T00:27:23.320Z,2.900
2023-04-13T00:28:23.393Z,2.299
2023-04-13T00:29:23.433Z,2.400
2023-04-13T00:30:23.753Z,3.099
2023-04-13T00:31:23.691Z,2.5
2023-04-13T00:32:23.499Z,4.099
2023-04-13T00:33:23.640Z,3.200
2023-04-13T00:34:23.667Z,3.299
2023-04-13T00:35:23.798Z,4.900
2023-04-13T00:37:23.878Z,4
2023-04-13T00:39:23.606Z,2.400
2023-04-13T00:40:23.349Z,4.300
2023-04-13T00:41:23.613Z,3.599
2023-04-13T00:42:23.405Z,3.400
2023-04-13T00:43:23.616Z,2.400
2023-04-13T00:44:23.399Z,3.400
2023-04-13T00:45:23.669Z,3.099
2023-04-13T00:46:23.942Z,4.400
2023-04-13T00:47:22.968Z,3.799
2023-04-13T00:48:23.618Z,3.200
2023-04-13T00:49:23.134Z,3.599
2023-04-13T00:50:24.126Z,3.400
2023-04-13T00:51:23.848Z,3.700
2023-04-13T00:52:23.975Z,5.099
2023-04-13T00:53:23.879Z,4.099
2023-04-13T00:54:23.502Z,2.599
2023-04-13T00:55:23.844Z,3.5
2023-04-13T00:56:23.247Z,3.099
2023-04-13T00:58:23.384Z,3.700
2023-04-13T00:59:23.378Z,3.599
2023-04-13T01:00:24.963Z,3.200
2023-04-13T01:01:23.690Z,3.099
2023-04-13T01:02:23.587Z,3.200
2023-04-13T01:03:31.637Z,2.299
2023-04-13T01:04:23.516Z,3
2023-04-13T01:05:23.282Z,5.599
2023-04-13T01:06:23.781Z,4.800
2023-04-13T01:07:31.655Z,3
2023-04-13T01:08:23.701Z,2.299
2023-04-13T01:09:23.575Z,3.5
2023-04-13T01:10:23.818Z,3
2023-04-13T01:11:23.615Z,4.099
2023-04-13T01:12:23.567Z,3.200
2023-04-13T01:13:23.422Z,3.299
2023-04-13T01:14:24.025Z,2.599
2023-04-13T01:15:24.313Z,3.900
2023-04-13T01:16:23.783Z,2.700
2023-04-13T01:18:23.879Z,4.300
2023-04-13T01:19:23.533Z,3
2023-04-13T01:20:23.443Z,2.700
2023-04-13T01:21:23.396Z,2.799
2023-04-13T01:22:23.912Z,2.5
2023-04-13T01:23:23.912Z,3.5
2023-04-13T01:24:24.124Z,3.200
2023-04-13T01:25:23.931Z,3.099
2023-04-13T01:26:23.847Z,3.299
2023-04-13T01:27:23.502Z,3.599
2023-04-13T01:28:23.987Z,3.299
2023-04-13T01:29:42.344Z,2.599
2023-04-13T01:30:24.287Z,3.200
2023-04-13T01:31:23.949Z,2.599
2023-04-13T01:32:24.119Z,3
2023-04-13T01:34:23.386Z,3.299
2023-04-13T01:35:23.483Z,3
2023-04-13T01:36:23.199Z,2.900
2023-04-13T01:37:23.781Z,3.799
2023-04-13T01:38:23.508Z,3.299
2023-04-13T01:39:23.562Z,2.5
2023-04-13T01:40:23.946Z,2.200
2023-04-13T01:41:23.677Z,2.599
2023-04-13T01:42:23.692Z,1.200
2023-04-13T01:43:23.696Z,2.200
2023-04-13T01:45:23.647Z,2.5
2023-04-13T01:46:23.749Z,3.5
2023-04-13T01:47:23.205Z,3.099
2023-04-13T01:48:23.321Z,2.400
2023-04-13T01:49:23.706Z,3.099
2023-04-13T01:50:23.247Z,3.200
2023-04-13T01:51:23.792Z,2.700
2023-04-13T01:52:23.287Z,2.900
2023-04-13T01:54:26.959Z,3.299
2023-04-13T01:55:24.027Z,2.700
2023-04-13T01:56:23.577Z,1.600
2023-04-13T01:57:23.318Z,2.400
2023-04-13T01:58:23.828Z,1.799
2023-04-13T02:00:24.832Z,3.299
2023-04-13T02:01:23.681Z,2.099
2023-04-13T02:03:24.283Z,3.400
2023-04-13T02:04:23.944Z,3.200
2023-04-13T02:06:23.817Z,2.700
2023-04-13T02:07:23.077Z,3.099
2023-04-13T02:08:23.771Z,2.599
2023-04-13T02:09:23.267Z,3.099
2023-04-13T02:10:23.873Z,2.400
2023-04-13T02:11:23.384Z,1.700
2023-04-13T02:12:23.762Z,4.099
2023-04-13T02:13:23.229Z,1.5
2023-04-13T02:14:23.462Z,2.299
2023-04-13T02:15:23.491Z,2.700
2023-04-13T02:16:24.076Z,1.799
2023-04-13T02:17:23.565Z,2.799
2023-04-13T02:18:23.920Z,2.400
2023-04-13T02:19:23.361Z,2.799
2023-04-13T02:20:23.965Z,2.5
2023-04-13T02:21:23.288Z,3.099
2023-04-13T02:22:23.549Z,2.599
2023-04-13T02:23:23.088Z,2
2023-04-13T02:24:24.139Z,2.5
2023-04-13T02:25:24.341Z,2
2023-04-13T02:26:23.230Z,1.200
2023-04-13T02:27:23.520Z,1.700
2023-04-13T02:28:23.409Z,2.900
2023-04-13T02:29:23.818Z,4.099
2023-04-13T02:30:24.028Z,3.200
2023-04-13T02:31:23.484Z,2.900
2023-04-13T02:32:23.743Z,2.400
2023-04-13T02:33:23.402Z,1.799
2023-04-13T02:34:23.259Z,2
2023-04-13T02:35:24.065Z,1.899
2023-04-13T02:36:23.696Z,4
2023-04-13T02:37:23.275Z,3.299
2023-04-13T02:38:23.481Z,2.5
2023-04-13T02:39:23.959Z,3.299
2023-04-13T02:40:23.770Z,1.100
2023-04-13T02:41:23.519Z,2.599
2023-04-13T02:42:23.814Z,3
2023-04-13T02:43:23.437Z,2.200
2023-04-13T02:44:23.967Z,3.400
2023-04-13T02:45:24.087Z,4.300
2023-04-13T02:46:24.082Z,3.900
2023-04-13T02:47:23.216Z,2.700
2023-04-13T02:48:23.731Z,3.200
2023-04-13T02:49:23.247Z,3.700
2023-04-13T02:50:23.511Z,3
2023-04-13T02:52:26.790Z,2.799
2023-04-13T02:53:23.536Z,2.299
2023-04-13T02:54:23.468Z,4
2023-04-13T02:55:24.185Z,2.5
2023-04-13T02:56:23.799Z,3.599
2023-04-13T02:57:23.743Z,4.300
2023-04-13T02:58:23.344Z,3.200
2023-04-13T02:59:23.764Z,2.599
2023-04-13T03:00:25.082Z,5.300
2023-04-13T03:01:23.756Z,4.099
2023-04-13T03:02:24.190Z,3.700
2023-04-13T03:03:23.443Z,3.5
2023-04-13T03:04:23.993Z,4.599
2023-04-13T03:05:24.112Z,4.300
2023-04-13T03:06:23.806Z,5.199
2023-04-13T03:07:23.218Z,2.700
2023-04-13T03:08:23.866Z,3.799
2023-04-13T03:09:23.639Z,3.099
2023-04-13T03:11:23.510Z,4.199
2023-04-13T03:12:23.344Z,3.900
2023-04-13T03:13:23.668Z,3.799
2023-04-13T03:15:23.703Z,2.799
2023-04-13T03:16:23.380Z,3.400
2023-04-13T03:18:23.429Z,4.300
2023-04-13T03:19:23.100Z,3.799
2023-04-13T03:21:23.604Z,2.400
2023-04-13T03:22:23.319Z,3.299
2023-04-13T03:23:24.132Z,4.400
2023-04-13T03:24:23.678Z,3.099
2023-04-13T03:25:24.075Z,4.699
2023-04-13T03:26:23.665Z,3.599
2023-04-13T03:27:23.347Z,3.700
2023-04-13T03:28:23.767Z,4
2023-04-13T03:29:23.331Z,3.799
2023-04-13T03:30:24.116Z,3.900
2023-04-13T03:31:23.703Z,4
2023-04-13T03:32:23.588Z,5.400
2023-04-13T03:33:23.531Z,3
2023-04-13T03:35:23.861Z,2.900
2023-04-13T03:36:23.816Z,3.900
2023-04-13T03:37:23.366Z,3.5
2023-04-13T03:38:23.789Z,3.200
2023-04-13T03:39:23.547Z,2.900
2023-04-13T03:40:23.541Z,2.799
2023-04-13T03:41:24.181Z,3.799
2023-04-13T03:42:23.905Z,3.200
2023-04-13T03:43:23.568Z,2.900
2023-04-13T03:44:23.176Z,4.300
2023-04-13T03:45:24.053Z,4.099
2023-04-13T03:46:23.938Z,3.400
2023-04-13T03:47:23.664Z,3
2023-04-13T03:48:23.793Z,2.599
2023-04-13T03:49:23.670Z,3.400
2023-04-13T03:50:23.470Z,3.200
2023-04-13T03:51:23.796Z,3.5
2023-04-13T03:52:23.768Z,4.099
2023-04-13T03:54:23.102Z,4.599
2023-04-13T03:55:23.749Z,3.200
2023-04-13T03:57:23.680Z,2.900
2023-04-13T03:58:23.620Z,2.599
2023-04-13T03:59:23.361Z,3.599
2023-04-13T04:00:24.547Z,4.900
2023-04-13T04:01:23.564Z,3.099
2023-04-13T04:02:23.971Z,2.700
2023-04-13T04:03:23.432Z,3.299
2023-04-13T04:04:23.731Z,3
2023-04-13T04:05:23.773Z,4
2023-04-13T04:06:23.574Z,3.5
2023-04-13T04:07:22.915Z,3.299
2023-04-13T04:08:23.358Z,3.400
2023-04-13T04:09:24.068Z,2.700
2023-04-13T04:10:23.855Z,4.099
2023-04-13T04:11:23.493Z,2.5
2023-04-13T04:13:24.033Z,4
2023-04-13T04:14:23.810Z,3
2023-04-13T04:15:23.780Z,2.5
2023-04-13T04:16:23.362Z,4.099
2023-04-13T04:17:23.487Z,3
2023-04-13T04:18:23.470Z,3.599
2023-04-13T04:19:23.370Z,2.200
2023-04-13T04:20:23.059Z,3.900
2023-04-13T04:21:23.856Z,4.400
2023-04-13T04:22:23.595Z,2.700
2023-04-13T04:23:23.071Z,3.5
2023-04-13T04:24:23.821Z,3.799
2023-04-13T04:25:23.859Z,2.5
2023-04-13T04:26:23.661Z,2.400
2023-04-13T04:27:23.296Z,2.599
2023-04-13T04:29:23.209Z,4.099
2023-04-13T04:30:24.546Z,2
2023-04-13T04:31:23.454Z,2.200
2023-04-13T04:32:23.786Z,4
2023-04-13T04:33:23.368Z,2.299
2023-04-13T04:34:23.620Z,3.400
2023-04-13T04:35:23.142Z,3.099
2023-04-13T04:36:24.102Z,3.700
2023-04-13T04:37:23.282Z,3.400
2023-04-13T04:38:23.707Z,2.599
2023-04-13T04:39:23.538Z,3.5
2023-04-13T04:40:23.341Z,1.600
2023-04-13T04:41:23.212Z,3.099
2023-04-13T04:42:23.346Z,3.200
2023-04-13T04:43:23.428Z,2.799
2023-04-13T04:44:23.606Z,3.099
2023-04-13T04:45:23.833Z,3.200
2023-04-13T04:46:24.406Z,2.5
2023-04-13T04:47:23.387Z,2.599
2023-04-13T04:48:23.412Z,3.099
2023-04-13T04:50:23.963Z,2.900
2023-04-13T04:51:23.592Z,2.700
2023-04-13T04:52:25.089Z,2
2023-04-13T04:53:23.917Z,2.599
2023-04-13T04:54:23.782Z,2.5
2023-04-13T04:55:23.529Z,2.200
2023-04-13T04:56:23.497Z,2.700
2023-04-13T04:57:23.245Z,3.099
2023-04-13T04:58:23.241Z,2.299
2023-04-13T04:59:23.812Z,2.5
2023-04-13T05:00:24.606Z,3.099
2023-04-13T05:01:23.625Z,3.200
2023-04-13T05:02:23.622Z,1.600
2023-04-13T05:03:23.787Z,2.299
2023-04-13T05:04:23.343Z,2.599
2023-04-13T05:05:23.421Z,2.700
2023-04-13T05:06:23.644Z,3.5
2023-04-13T05:07:23.544Z,0.899
2023-04-13T05:08:23.542Z,2.5
2023-04-13T05:09:23.795Z,1.899
2023-04-13T05:10:23.672Z,3.299
2023-04-13T05:11:23.923Z,1.600
2023-04-13T05:12:23.579Z,1.899
2023-04-13T05:13:23.452Z,2.099
2023-04-13T05:14:23.514Z,1.200
2023-04-13T05:15:24.030Z,1.600
2023-04-13T05:16:24.296Z,2.299
2023-04-13T05:17:23.859Z,1.600
2023-04-13T05:18:24.050Z,2
2023-04-13T05:20:23.887Z,2.299
2023-04-13T05:21:24.002Z,0.800
2023-04-13T05:22:24.061Z,1.5
2023-04-13T05:25:24.102Z,3.099
2023-04-13T05:26:23.640Z,2.5
2023-04-13T05:27:23.103Z,3
2023-04-13T05:28:23.475Z,1.700
2023-04-13T05:29:23.361Z,2.200
2023-04-13T05:30:24.322Z,1.299
2023-04-13T05:31:24.055Z,1
2023-04-13T05:32:23.795Z,2.5
2023-04-13T05:33:23.989Z,0.699
2023-04-13T05:34:24.349Z,2.900
2023-04-13T05:35:23.917Z,2
2023-04-13T05:36:23.517Z,2.099
2023-04-13T05:37:23.725Z,1.5
2023-04-13T05:38:23.512Z,1.799
2023-04-13T05:39:23.472Z,2.299
2023-04-13T05:40:23.629Z,2.099
2023-04-13T05:41:28.473Z,1.799
2023-04-13T05:42:23.673Z,1.700
2023-04-13T05:43:24.038Z,0.600
2023-04-13T05:44:23.937Z,1.200
2023-04-13T05:45:24.304Z,1
2023-04-13T05:46:23.715Z,3.099
2023-04-13T05:47:23.296Z,1.799
2023-04-13T05:48:23.850Z,2.299
2023-04-13T05:49:23.980Z,2.599
2023-04-13T05:50:23.991Z,2
2023-04-13T05:51:23.968Z,1.799
2023-04-13T05:52:23.707Z,2
2023-04-13T05:53:23.842Z,2.299
2023-04-13T05:54:24.163Z,1.799
2023-04-13T05:55:23.957Z,2
2023-04-13T05:56:24.122Z,2.099
2023-04-13T05:57:32.060Z,2.299
2023-04-13T05:58:23.303Z,1.399
2023-04-13T05:59:31.753Z,1.5
2023-04-13T06:00:24.772Z,1.600
2023-04-13T06:01:38.432Z,2.700
2023-04-13T06:02:23.811Z,2.299
2023-04-13T06:03:23.818Z,1.600
2023-04-13T06:04:24.001Z,2
2023-04-13T06:06:24.183Z,0.699
2023-04-13T06:07:24.312Z,1.899
2023-04-13T06:08:23.432Z,1.600
2023-04-13T06:09:23.640Z,1.399
2023-04-13T06:10:23.912Z,0.5
2023-04-13T06:11:24.059Z,1
2023-04-13T06:12:24.125Z,2
2023-04-13T06:13:24.410Z,1.200
2023-04-13T06:14:23.391Z,0.600
2023-04-13T06:15:24.364Z,1.700
2023-04-13T06:16:23.748Z,2.400
2023-04-13T06:17:23.967Z,2
2023-04-13T06:18:23.688Z,1.399
2023-04-13T06:19:23.472Z,0.600
2023-04-13T06:20:23.540Z,1.899
2023-04-13T06:21:23.368Z,1.5
2023-04-13T06:22:23.428Z,1.100
2023-04-13T06:23:23.414Z,1.5
2023-04-13T06:24:23.651Z,2.400
2023-04-13T06:25:24.297Z,1.899
2023-04-13T06:26:23.782Z,3.099
2023-04-13T06:27:24.110Z,1.100
2023-04-13T06:28:23.863Z,1
2023-04-13T06:29:23.599Z,1.899
2023-04-13T06:30:23.684Z,1.700
2023-04-13T06:31:23.564Z,1.799
2023-04-13T06:32:23.428Z,1.399
2023-04-13T06:33:23.267Z,0.899
2023-04-13T06:34:23.840Z,1
2023-04-13T06:35:24.401Z,2.200
2023-04-13T06:36:23.473Z,1.600
2023-04-13T06:37:23.589Z,1.399
2023-04-13T06:39:23.646Z,1.299
2023-04-13T06:40:23.809Z,1.600
2023-04-13T06:41:24.014Z,2.400
2023-04-13T06:42:24.056Z,2
2023-04-13T06:43:29.427Z,1.700
2023-04-13T06:44:23.559Z,1.100
2023-04-13T06:45:23.663Z,1.200
2023-04-13T06:46:23.565Z,1.5
2023-04-13T06:48:23.893Z,1.200
2023-04-13T06:49:23.683Z,2.299
2023-04-13T06:50:24.086Z,2.400
2023-04-13T06:51:23.442Z,1.5
2023-04-13T06:52:23.406Z,2.5
2023-04-13T06:54:27.048Z,1.799
2023-04-13T06:55:24.115Z,1.100
2023-04-13T06:56:23.898Z,1.399
2023-04-13T06:57:23.957Z,1.700
2023-04-13T06:58:23.902Z,2.5
2023-04-13T06:59:23.594Z,1.600
2023-04-13T07:00:30.158Z,1.299
2023-04-13T07:01:24.303Z,2.099
2023-04-13T07:02:23.803Z,0.899
2023-04-13T07:03:24.334Z,1.700
2023-04-13T07:04:27.424Z,1.899
2023-04-13T07:05:23.737Z,1.600
2023-04-13T07:06:23.534Z,1.5
2023-04-13T07:07:23.758Z,0.699
2023-04-13T07:08:23.466Z,1
2023-04-13T07:09:23.993Z,1.399
2023-04-13T07:10:24.159Z,1.5
2023-04-13T07:12:23.424Z,1
2023-04-13T07:13:23.385Z,1.700
2023-04-13T07:15:24.237Z,1.299
2023-04-13T07:16:23.403Z,1.200
2023-04-13T07:17:23.858Z,0.699
2023-04-13T07:18:24.161Z,1.299
2023-04-13T07:19:24.047Z,1.100
2023-04-13T07:21:23.822Z,1.299
2023-04-13T07:22:23.466Z,1.200
2023-04-13T07:23:23.271Z,1.100
2023-04-13T07:24:23.892Z,1.200
2023-04-13T07:26:23.970Z,1.799
2023-04-13T07:27:23.745Z,1.200
2023-04-13T07:28:23.164Z,2.5
2023-04-13T07:29:23.663Z,2.599
2023-04-13T07:30:23.893Z,1.600
2023-04-13T07:31:23.623Z,2.299
2023-04-13T07:32:30.250Z,2.400
2023-04-13T07:33:23.858Z,2.299
2023-04-13T07:34:24.134Z,2.099
2023-04-13T07:35:23.944Z,2.700
2023-04-13T07:36:23.700Z,1.799
2023-04-13T07:37:23.391Z,1.899
2023-04-13T07:38:23.581Z,1.700
2023-04-13T07:39:23.458Z,2.400
2023-04-13T07:40:24.436Z,2
2023-04-13T07:41:23.479Z,0.899
2023-04-13T07:42:23.234Z,5.400
2023-04-13T07:43:23.942Z,1.5
2023-04-13T07:46:23.852Z,1.100
2023-04-13T07:47:23.737Z,2.299
2023-04-13T07:48:23.396Z,2.599
2023-04-13T07:49:23.209Z,1.899
2023-04-13T07:50:24.254Z,2.799
2023-04-13T07:51:23.656Z,3.400
2023-04-13T07:52:23.555Z,1.700
2023-04-13T07:53:23.765Z,4.300
2023-04-13T07:54:23.721Z,2.099
2023-04-13T07:55:23.840Z,2.700
2023-04-13T07:56:23.889Z,2.599
2023-04-13T07:57:23.712Z,3.099
2023-04-13T07:58:23.386Z,3.5
2023-04-13T07:59:25.117Z,2.200
2023-04-13T08:01:23.095Z,2.700
2023-04-13T08:02:23.504Z,3
2023-04-13T08:03:23.360Z,3.799
2023-04-13T08:04:23.262Z,3.099
2023-04-13T08:05:24.225Z,3.599
2023-04-13T08:06:23.890Z,3.5
2023-04-13T08:07:23.532Z,3
2023-04-13T08:08:28.540Z,3.299
2023-04-13T08:09:23.860Z,3.099
2023-04-13T08:10:24.543Z,2.700
2023-04-13T08:11:23.585Z,4.199
2023-04-13T08:12:28.258Z,4.300
2023-04-13T08:13:23.234Z,3.400
2023-04-13T08:14:24.016Z,3.900
2023-04-13T08:15:23.679Z,3.099
2023-04-13T08:16:23.601Z,4
2023-04-13T08:17:23.970Z,3.599
2023-04-13T08:18:24.122Z,4.099
2023-04-13T08:19:23.705Z,3.200
2023-04-13T08:20:23.807Z,3
2023-04-13T08:21:23.597Z,4
2023-04-13T08:22:31.493Z,4.199
2023-04-13T08:23:23.717Z,3.299
2023-04-13T08:24:23.637Z,4
2023-04-13T08:25:23.739Z,3.299
2023-04-13T08:26:23.535Z,3.099
2023-04-13T08:27:23.618Z,4.300
2023-04-13T08:28:23.449Z,2.5
2023-04-13T08:29:23.689Z,5
2023-04-13T08:30:24.461Z,5.099
2023-04-13T08:31:23.671Z,3
2023-04-13T08:32:23.717Z,4.400
2023-04-13T08:33:23.738Z,3.900
2023-04-13T08:34:23.521Z,4.400
2023-04-13T08:35:24.080Z,4.199
2023-04-13T08:36:38.175Z,4.300
2023-04-13T08:37:23.877Z,4.900
2023-04-13T08:38:23.673Z,3.200
2023-04-13T08:39:24.060Z,3.599
2023-04-13T08:40:23.955Z,5.699
2023-04-13T08:41:24.052Z,3.599
2023-04-13T08:42:25.135Z,4.400
2023-04-13T08:43:23.678Z,5.099
2023-04-13T08:44:23.612Z,4.199
2023-04-13T08:45:24.110Z,5.099
2023-04-13T08:46:24.126Z,3.5
2023-04-13T08:47:24.078Z,4
2023-04-13T08:48:24.259Z,5.800
2023-04-13T08:49:24.167Z,4.400
2023-04-13T08:50:42.826Z,4.300
2023-04-13T08:51:23.814Z,4
2023-04-13T08:52:23.474Z,4.5
2023-04-13T08:53:24.012Z,5.300
2023-04-13T08:54:23.877Z,3.900
2023-04-13T08:55:24.025Z,4.800
2023-04-13T08:56:30.933Z,6
2023-04-13T08:57:24.214Z,5
2023-04-13T08:58:24.121Z,4.900
2023-04-13T08:59:23.284Z,5.199
2023-04-13T09:00:24.368Z,5
2023-04-13T09:01:23.583Z,6.300
2023-04-13T09:02:23.874Z,4.800
2023-04-13T09:03:24.372Z,4.400
2023-04-13T09:04:23.722Z,5.699
2023-04-13T09:05:23.902Z,5
2023-04-13T09:06:23.853Z,6.300
2023-04-13T09:07:23.692Z,5.800
2023-04-13T09:08:24.059Z,3.799
2023-04-13T09:09:24.288Z,4.5
2023-04-13T09:10:23.856Z,3.799
2023-04-13T09:11:23.815Z,4
2023-04-13T09:12:23.328Z,2.700
2023-04-13T09:13:24.064Z,6
2023-04-13T09:14:23.785Z,4.300
2023-04-13T09:15:24.021Z,3.799
2023-04-13T09:16:23.584Z,2.700
2023-04-13T09:17:23.444Z,3.5
2023-04-13T09:18:23.449Z,2.400
2023-04-13T09:19:23.508Z,2.299
2023-04-13T09:21:23.567Z,4.5
2023-04-13T09:22:23.357Z,2.5
2023-04-13T09:23:23.365Z,2.299
2023-04-13T09:24:23.477Z,2.900
2023-04-13T09:25:23.998Z,2.200
2023-04-13T09:26:23.939Z,1.799
2023-04-13T09:27:24.485Z,2.5
2023-04-13T09:28:24.371Z,4.300
2023-04-13T09:29:23.589Z,4.5
2023-04-13T09:30:23.808Z,3.799
2023-04-13T09:31:23.727Z,3.099
2023-04-13T09:32:23.758Z,4.199
2023-04-13T09:33:23.812Z,3.200
2023-04-13T09:34:23.977Z,3.099
2023-04-13T09:35:24.150Z,3.799
2023-04-13T09:36:23.736Z,2.799
2023-04-13T09:37:23.492Z,4.699
2023-04-13T09:38:23.480Z,3.099
2023-04-13T09:39:23.812Z,3.599
2023-04-13T09:40:23.745Z,4
2023-04-13T09:41:23.864Z,5.199
2023-04-13T09:42:23.750Z,4.099
2023-04-13T09:43:23.346Z,3.900
2023-04-13T09:44:23.632Z,4.199
2023-04-13T09:45:23.664Z,3.799
2023-04-13T09:46:23.632Z,3.700
2023-04-13T09:47:23.363Z,5.699
2023-04-13T09:48:23.486Z,5.199
2023-04-13T09:49:24.081Z,4.800
2023-04-13T09:50:24.078Z,5.599
2023-04-13T09:51:23.395Z,4.699
2023-04-13T09:52:23.747Z,5
2023-04-13T09:53:24.009Z,6.199
2023-04-13T09:54:24.049Z,5.199
2023-04-13T09:55:23.547Z,6
2023-04-13T09:56:24.009Z,6.099
2023-04-13T09:57:23.427Z,5.599
2023-04-13T09:58:25.414Z,5.900
2023-04-13T09:59:23.609Z,4.800
2023-04-13T10:00:24.803Z,5.300
2023-04-13T10:01:23.886Z,5.900
2023-04-13T10:02:24.177Z,5
2023-04-13T10:03:24.133Z,5.199
2023-04-13T10:04:23.503Z,5.699
2023-04-13T10:05:24.392Z,4.900
2023-04-13T10:06:23.665Z,5
2023-04-13T10:07:23.840Z,6.400
2023-04-13T10:08:36.615Z,6.300
2023-04-13T10:09:24.375Z,6.900
2023-04-13T10:10:24.161Z,6.199
2023-04-13T10:11:24.017Z,6.300
2023-04-13T10:12:23.911Z,6.599
2023-04-13T10:13:24.421Z,5.400
2023-04-13T10:14:24.235Z,6.400
2023-04-13T10:15:24.419Z,6.900
2023-04-13T10:16:23.928Z,4.699
2023-04-13T10:17:24.183Z,7.099
2023-04-13T10:18:23.579Z,7.800
2023-04-13T10:19:23.636Z,5.5
2023-04-13T10:20:24.338Z,6.599
2023-04-13T10:21:23.851Z,6.099
2023-04-13T10:22:23.941Z,5.800
2023-04-13T10:23:24.025Z,5.699
2023-04-13T10:24:24.231Z,6.599
2023-04-13T10:25:33.157Z,4.300
2023-04-13T10:26:23.421Z,6.099
2023-04-13T10:27:23.446Z,6.800
2023-04-13T10:28:25.679Z,6.599
2023-04-13T10:29:23.443Z,5.900
2023-04-13T10:30:24.105Z,5.400
2023-04-13T10:31:23.922Z,7.599
2023-04-13T10:32:24.146Z,5.900
2023-04-13T10:33:23.531Z,6.900
2023-04-13T10:34:23.714Z,7.199
2023-04-13T10:35:23.696Z,6.300
2023-04-13T10:36:24.129Z,7.400
2023-04-13T10:37:28.950Z,6.300
2023-04-13T10:38:23.732Z,7.599
2023-04-13T10:39:23.865Z,6.400
2023-04-13T10:40:24.314Z,6.599
2023-04-13T10:41:28.444Z,7.199
2023-04-13T10:42:23.527Z,5.400
2023-04-13T10:43:31.522Z,7.199
2023-04-13T10:44:23.717Z,5.699
2023-04-13T10:45:24.083Z,5.900
2023-04-13T10:46:24.033Z,6.099
2023-04-13T10:47:25.868Z,7
2023-04-13T10:48:23.768Z,7.400
2023-04-13T10:49:23.885Z,5.5
2023-04-13T10:50:24.042Z,7.5
2023-04-13T10:51:37.836Z,5.800
2023-04-13T10:52:23.562Z,7.099
2023-04-13T10:53:25.979Z,7.300
2023-04-13T10:54:23.696Z,6.800
2023-04-13T10:55:37.788Z,6.199
2023-04-13T10:56:23.982Z,6
2023-04-13T10:57:23.877Z,5.800
2023-04-13T10:58:23.725Z,6.699
2023-04-13T10:59:24.139Z,6.900
2023-04-13T11:00:34.746Z,7.5
2023-04-13T11:01:23.632Z,6.400
2023-04-13T11:02:23.666Z,6.599
2023-04-13T11:03:23.740Z,7.5
2023-04-13T11:04:24.339Z,6.300
2023-04-13T11:05:24.592Z,6.599
2023-04-13T11:06:24.073Z,5.300
2023-04-13T11:07:24.117Z,7.099
2023-04-13T11:09:23.489Z,7.199
2023-04-13T11:10:24.559Z,6.300
2023-04-13T11:11:23.786Z,7
2023-04-13T11:12:23.818Z,7.199
2023-04-13T11:13:23.408Z,5.099
2023-04-13T11:14:23.793Z,7.800
2023-04-13T11:15:42.966Z,7.400
2023-04-13T11:16:23.818Z,5.199
2023-04-13T11:17:23.855Z,6.199
2023-04-13T11:18:24.024Z,6
2023-04-13T11:19:23.574Z,6.400
2023-04-13T11:20:24.022Z,6
2023-04-13T11:21:23.695Z,7.699
2023-04-13T11:22:23.870Z,4.5
2023-04-13T11:23:24.340Z,5.900
2023-04-13T11:24:23.231Z,7.900
2023-04-13T11:25:23.982Z,8.5
2023-04-13T11:26:23.201Z,6.199
2023-04-13T11:27:23.568Z,7
2023-04-13T11:28:23.511Z,7.300
2023-04-13T11:29:23.254Z,5.800
2023-04-13T11:30:24.257Z,6.5
2023-04-13T11:31:23.059Z,6
2023-04-13T11:32:23.601Z,7
2023-04-13T11:33:23.366Z,6.099
2023-04-13T11:34:23.627Z,5.800
2023-04-13T11:35:23.993Z,8
2023-04-13T11:36:23.993Z,7
2023-04-13T11:37:23.517Z,5.900
2023-04-13T11:38:23.192Z,6.400
2023-04-13T11:39:23.554Z,5.5
2023-04-13T11:40:23.739Z,6.800
2023-04-13T11:41:23.622Z,6
2023-04-13T11:42:23.405Z,7
2023-04-13T11:43:23.705Z,7.300
2023-04-13T11:44:23.925Z,7.800
2023-04-13T11:46:23.679Z,8.199
2023-04-13T11:47:23.960Z,6.5
2023-04-13T11:48:24.365Z,9.100
2023-04-13T11:49:23.795Z,8.199
2023-04-13T11:50:23.863Z,6.900
2023-04-13T11:52:23.185Z,7.800
2023-04-13T11:53:23.639Z,8.699
2023-04-13T11:54:23.371Z,5.699
2023-04-13T11:55:24.417Z,6.599
2023-04-13T11:56:23.562Z,6
2023-04-13T11:57:23.504Z,7.699
2023-04-13T11:58:23.477Z,6.099
2023-04-13T11:59:23.086Z,7.5
2023-04-13T12:00:24.809Z,7.199
2023-04-13T12:01:26.161Z,6.199
2023-04-13T12:02:23.586Z,5.800
2023-04-13T12:03:38.372Z,6.199
2023-04-13T12:04:23.972Z,6.599
2023-04-13T12:05:24.056Z,7.800
2023-04-13T12:06:23.462Z,6.199
2023-04-13T12:07:23.852Z,6
2023-04-13T12:09:36.995Z,6.800
2023-04-13T12:10:38.341Z,6.300
2023-04-13T12:11:40.340Z,6.400
2023-04-13T12:14:45.001Z,6.800
2023-04-13T12:15:40.219Z,6
2023-04-13T12:16:55.548Z,5.400
2023-04-13T12:17:38.938Z,7.699
2023-04-13T12:19:24.682Z,6.400
2023-04-13T12:20:23.908Z,5.400
2023-04-13T12:21:24.016Z,6.5
2023-04-13T12:22:23.892Z,5
2023-04-13T12:23:24.615Z,6.5
2023-04-13T12:25:24.839Z,5.199
2023-04-13T12:27:30.209Z,5
2023-04-13T12:28:23.349Z,6.099
2023-04-13T12:29:23.683Z,8.100
2023-04-13T12:30:24.436Z,6
2023-04-13T12:31:23.470Z,9.399
2023-04-13T12:32:24.181Z,7.199
2023-04-13T12:33:23.720Z,5.400
2023-04-13T12:34:23.624Z,6.400
2023-04-13T12:35:23.917Z,8
2023-04-13T12:36:24.147Z,7
2023-04-13T12:37:23.838Z,6.800
2023-04-13T12:38:23.938Z,6.400
2023-04-13T12:39:23.636Z,7.900
2023-04-13T12:40:23.987Z,6.900
2023-04-13T12:41:23.773Z,6.300
2023-04-13T12:42:23.603Z,6.599
2023-04-13T12:43:23.589Z,6.199
2023-04-13T12:45:24.151Z,7
2023-04-13T12:46:23.327Z,7.300
2023-04-13T12:47:23.903Z,6.400
2023-04-13T12:48:23.770Z,7.300
2023-04-13T12:49:23.839Z,6.699
2023-04-13T12:50:24.425Z,6.900
2023-04-13T12:51:23.272Z,7.699
2023-04-13T12:53:23.491Z,7.599
2023-04-13T12:54:23.487Z,6.800
2023-04-13T12:55:23.602Z,7.400
2023-04-13T12:56:23.571Z,7.199
2023-04-13T12:57:23.619Z,6.599
2023-04-13T12:58:23.205Z,6
2023-04-13T12:59:24.328Z,8.100
2023-04-13T13:00:25.040Z,7.400
2023-04-13T13:01:23.552Z,7
2023-04-13T13:02:24.257Z,7.400
2023-04-13T13:03:23.557Z,6.900
2023-04-13T13:04:23.815Z,6.300
2023-04-13T13:05:23.980Z,6.5
2023-04-13T13:06:28.816Z,7.599
2023-04-13T13:07:23.615Z,7.800
2023-04-13T13:08:23.798Z,7.099
2023-04-13T13:09:23.974Z,6
2023-04-13T13:10:29.479Z,4.900
2023-04-13T13:11:23.541Z,6
2023-04-13T13:12:23.953Z,7.400
2023-04-13T13:13:24.133Z,6.800
2023-04-13T13:14:23.678Z,6.699
2023-04-13T13:15:23.950Z,6.5
2023-04-13T13:17:23.576Z,7.300
2023-04-13T13:18:24.748Z,7
2023-04-13T13:19:23.763Z,5.400
2023-04-13T13:20:24.068Z,6
2023-04-13T13:21:24.213Z,4.5
2023-04-13T13:22:24.069Z,4.400
2023-04-13T13:23:23.957Z,5.800
2023-04-13T13:24:23.788Z,4.5
2023-04-13T13:25:23.699Z,4.699
2023-04-13T13:26:26.141Z,4.5
2023-04-13T13:28:23.729Z,5.400
2023-04-13T13:29:23.497Z,5.599
2023-04-13T13:30:24.228Z,5.300
2023-04-13T13:31:23.369Z,4.5
2023-04-13T13:32:23.685Z,6.5
2023-04-13T13:33:23.742Z,5.5
2023-04-13T13:34:23.752Z,4.800
2023-04-13T13:35:23.872Z,5.5
2023-04-13T13:36:23.823Z,7
2023-04-13T13:37:23.665Z,6.199
2023-04-13T13:38:23.844Z,6.099
2023-04-13T13:39:23.716Z,5.699
2023-04-13T13:40:23.914Z,7
2023-04-13T13:41:23.509Z,5.599
2023-04-13T13:42:51.785Z,4.900
2023-04-13T13:43:27.690Z,6.400
2023-04-13T13:44:23.803Z,3.599
2023-04-13T13:45:24.290Z,4.5
2023-04-13T13:46:23.774Z,4.800
2023-04-13T13:47:23.847Z,5.099
2023-04-13T13:48:23.888Z,5.599
2023-04-13T13:49:23.450Z,6
2023-04-13T13:50:23.623Z,4.800
2023-04-13T13:51:24.007Z,7.800
2023-04-13T13:52:23.721Z,6.300
2023-04-13T13:53:23.939Z,8.100
2023-04-13T13:54:23.986Z,5.599
2023-04-13T13:55:23.902Z,6.099
2023-04-13T13:56:23.685Z,6.5
2023-04-13T13:57:23.957Z,5.300
2023-04-13T13:58:24.102Z,5.5
2023-04-13T13:59:23.322Z,5.599
2023-04-13T14:00:24.767Z,5.099